Time;durP1;ratioP1;P1;durP2;ratioP2;P2;SDS_P1;SDS_P2;PMS_P1;PMS_P2;Temp;Humidity;BMP_temperature;BMP_pressure;BME280_temperature;BME280_humidity;BME280_pressure;Samples;Min_cycle;Max_cycle;Signal;HPM_P1;HPM_P2
2022/02/27 05:00:13;;;;;;;4.18;2.70;;;0.00;99.90;;;;;;5984430;23;20188;31
2022/02/27 05:02:39;;;;;;;3.55;3.10;;;0.00;99.90;;;;;;4952617;29;20221;-67
2022/02/27 05:05:07;;;;;;;3.50;3.33;;;0.00;99.90;;;;;;4947262;29;20763;-67
2022/02/27 05:07:34;;;;;;;3.78;2.70;;;0.00;99.90;;;;;;4955114;28;20224;-68
2022/02/27 05:10:01;;;;;;;4.25;3.53;;;-0.10;99.90;;;;;;4953796;29;20213;-71
2022/02/27 05:12:28;;;;;;;3.85;3.53;;;-0.10;99.90;;;;;;4931363;29;20254;-67
2022/02/27 05:14:55;;;;;;;2.50;2.35;;;-0.10;99.90;;;;;;4919099;29;20210;-68
2022/02/27 05:17:23;;;;;;;4.63;4.22;;;-0.10;99.90;;;;;;4931762;29;20221;-68
2022/02/27 05:19:49;;;;;;;3.80;3.35;;;-0.10;99.90;;;;;;4936062;29;20208;-67
2022/02/27 05:22:16;;;;;;;5.55;4.28;;;-0.10;99.90;;;;;;4929042;29;20230;-68
2022/02/27 05:24:43;;;;;;;3.65;2.95;;;-0.10;99.90;;;;;;4930768;29;20654;-68
2022/02/27 05:27:09;;;;;;;3.45;3.30;;;-0.10;99.90;;;;;;4957672;23;21132;-70
2022/02/27 05:29:36;;;;;;;3.40;3.13;;;-0.10;99.90;;;;;;4930085;29;20202;-70
2022/02/27 05:32:03;;;;;;;5.75;3.15;;;-0.10;99.90;;;;;;4935578;29;20221;-70
2022/02/27 05:34:31;;;;;;;3.22;2.92;;;-0.10;99.90;;;;;;4935112;29;20216;-70
2022/02/27 05:36:58;;;;;;;2.58;2.40;;;-0.10;99.90;;;;;;4935748;29;20218;-70
2022/02/27 05:39:25;;;;;;;3.08;2.97;;;-0.10;99.90;;;;;;4915654;29;20250;-71
2022/02/27 05:41:51;;;;;;;3.63;2.78;;;-0.10;99.90;;;;;;4915589;29;20598;-70
2022/02/27 05:44:18;;;;;;;5.15;2.55;;;-0.20;99.90;;;;;;4915784;29;20218;-70
2022/02/27 05:46:45;;;;;;;3.83;3.55;;;-0.20;99.90;;;;;;4901467;29;20614;-70
2022/02/27 05:49:12;;;;;;;2.80;2.60;;;-0.20;99.90;;;;;;4897004;29;20215;-70
2022/02/27 05:51:40;;;;;;;7.30;3.70;;;-0.20;99.90;;;;;;4909789;29;20202;-70
2022/02/27 05:54:07;;;;;;;2.85;2.65;;;-0.20;99.90;;;;;;4913551;29;20202;-70
2022/02/27 05:56:33;;;;;;;6.38;3.50;;;-0.20;99.90;;;;;;4904082;29;20203;-70
2022/02/27 05:59:00;;;;;;;6.07;3.10;;;-0.30;99.90;;;;;;4900140;29;20229;-70
2022/02/27 06:01:27;;;;;;;4.95;3.60;;;-0.30;99.90;;;;;;4915874;29;20218;-70
2022/02/27 06:03:53;;;;;;;3.58;3.25;;;-0.30;99.90;;;;;;4915367;29;20680;-70
2022/02/27 06:06:20;;;;;;;4.03;2.85;;;-0.30;99.90;;;;;;4915977;29;20234;-70
2022/02/27 06:08:48;;;;;;;5.10;3.40;;;-0.30;99.90;;;;;;4914448;29;20226;-70
2022/02/27 06:11:15;;;;;;;3.90;3.70;;;-0.30;99.90;;;;;;4910120;29;20215;-70
2022/02/27 06:13:41;;;;;;;3.45;3.30;;;-0.30;99.90;;;;;;4915455;29;20199;-70
2022/02/27 06:16:08;;;;;;;4.13;3.30;;;-0.30;99.90;;;;;;4897214;29;20581;-70
2022/02/27 06:18:35;;;;;;;2.60;2.50;;;-0.30;99.90;;;;;;4896820;29;20239;-69
2022/02/27 06:21:02;;;;;;;3.47;3.10;;;-0.30;99.90;;;;;;4896856;29;20212;-71
2022/02/27 06:23:29;;;;;;;3.60;3.40;;;-0.30;99.90;;;;;;4904580;29;20314;-70
2022/02/27 06:25:57;;;;;;;3.33;3.03;;;-0.30;99.90;;;;;;4915241;29;20290;-70
2022/02/27 06:28:23;;;;;;;3.22;2.92;;;-0.30;99.90;;;;;;4914170;29;20242;-70
2022/02/27 06:30:50;;;;;;;7.47;4.07;;;-0.30;99.90;;;;;;4913908;29;20724;-70
2022/02/27 06:33:17;;;;;;;4.40;3.90;;;-0.30;99.90;;;;;;4922644;29;20214;-70
2022/02/27 06:35:44;;;;;;;4.65;3.75;;;-0.30;99.90;;;;;;4925405;29;20199;-70
2022/02/27 06:38:10;;;;;;;4.88;3.85;;;-0.30;99.90;;;;;;4909361;29;20226;-70
2022/02/27 06:40:37;;;;;;;5.03;3.40;;;-0.20;99.90;;;;;;4896632;29;20210;-70
2022/02/27 06:43:07;;;;;;;3.40;3.13;;;-0.20;99.90;;;;;;4899474;29;20231;-70
2022/02/27 06:45:34;;;;;;;6.32;4.47;;;-0.20;99.90;;;;;;4904444;29;20227;-70
2022/02/27 06:48:01;;;;;;;4.00;3.58;;;-0.20;99.90;;;;;;4905699;29;20322;-71
2022/02/27 06:50:28;;;;;;;4.97;3.95;;;-0.20;99.90;;;;;;4915723;29;20211;-70
2022/02/27 06:52:54;;;;;;;7.63;3.90;;;-0.10;99.90;;;;;;4907100;29;20203;-70
2022/02/27 06:55:21;;;;;;;3.65;3.35;;;-0.10;99.90;;;;;;4896210;29;20365;-70
2022/02/27 06:57:50;;;;;;;4.63;4.03;;;0.00;99.90;;;;;;4900169;29;20223;-70
2022/02/27 07:00:19;;;;;;;5.18;3.88;;;0.00;99.90;;;;;;4896535;29;20203;-70
2022/02/27 07:02:47;;;;;;;5.40;3.88;;;0.00;99.90;;;;;;4911802;29;20746;-70
2022/02/27 07:05:14;;;;;;;4.22;3.88;;;0.10;99.90;;;;;;4917042;29;20206;-70
2022/02/27 07:07:41;;;;;;;6.05;5.45;;;0.10;99.90;;;;;;4895812;29;20349;-70
2022/02/27 07:10:08;;;;;;;4.68;4.15;;;0.20;99.90;;;;;;4902861;29;20269;-70
2022/02/27 07:12:37;;;;;;;9.75;4.78;;;0.20;99.90;;;;;;4896382;29;20211;-70
2022/02/27 07:15:05;;;;;;;4.18;3.88;;;0.20;99.90;;;;;;4902829;29;20211;-70
2022/02/27 07:17:33;;;;;;;6.63;4.68;;;0.40;99.90;;;;;;4897134;29;20238;-70
2022/02/27 07:20:00;;;;;;;5.30;4.80;;;0.60;99.90;;;;;;4905035;29;20206;-70
2022/02/27 07:22:27;;;;;;;5.32;4.15;;;0.60;99.90;;;;;;4914562;29;20261;-70
2022/02/27 07:24:54;;;;;;;5.45;4.15;;;0.70;99.90;;;;;;4911406;29;20206;-70
2022/02/27 07:27:21;;;;;;;6.40;4.72;;;0.70;99.90;;;;;;4915533;29;20609;-71
2022/02/27 07:29:47;;;;;;;10.73;4.20;;;0.80;99.90;;;;;;4910263;29;20206;-70
2022/02/27 07:32:14;;;;;;;10.13;5.18;;;0.80;99.90;;;;;;4908602;29;20210;-70
2022/02/27 07:34:43;;;;;;;8.65;4.75;;;0.90;99.90;;;;;;4905780;29;20254;-70
2022/02/27 07:37:10;;;;;;;5.72;4.93;;;1.00;99.90;;;;;;4911831;29;20257;-70
2022/02/27 07:39:37;;;;;;;6.53;5.10;;;1.00;99.90;;;;;;4920049;29;20210;-70
2022/02/27 07:42:04;;;;;;;9.48;4.47;;;1.00;99.90;;;;;;4909222;29;20210;-70
2022/02/27 07:44:30;;;;;;;5.32;4.85;;;1.10;99.90;;;;;;4908342;29;20218;-70
2022/02/27 07:46:57;;;;;;;7.43;5.32;;;1.20;99.90;;;;;;4914963;29;20308;-70
2022/02/27 07:49:24;;;;;;;5.60;4.07;;;1.20;99.90;;;;;;4908179;29;20213;-70
2022/02/27 07:51:53;;;;;;;5.75;5.22;;;1.30;99.90;;;;;;4910209;29;20215;-70
2022/02/27 07:54:20;;;;;;;5.85;5.45;;;1.40;99.90;;;;;;4924133;29;20209;-70
2022/02/27 07:56:47;;;;;;;9.85;5.35;;;1.40;99.90;;;;;;4903615;29;20275;-70
2022/02/27 07:59:14;;;;;;;8.27;4.63;;;1.50;99.90;;;;;;4926201;29;20552;-70
2022/02/27 08:01:40;;;;;;;7.28;5.00;;;1.50;99.90;;;;;;4917708;29;20211;-70
2022/02/27 08:04:07;;;;;;;7.75;5.25;;;1.60;99.90;;;;;;4901093;29;20207;-70
2022/02/27 08:06:35;;;;;;;12.10;6.70;;;1.60;99.90;;;;;;4900080;29;20587;-70
2022/02/27 08:09:03;;;;;;;10.63;4.95;;;1.60;99.90;;;;;;4903249;29;20592;-70
2022/02/27 08:11:31;;;;;;;9.52;5.50;;;1.70;99.90;;;;;;4899296;29;20279;-70
2022/02/27 08:13:58;;;;;;;6.82;4.72;;;1.70;99.90;;;;;;4913346;29;20211;-70
2022/02/27 08:16:25;;;;;;;8.80;5.32;;;1.80;99.90;;;;;;4918158;29;20676;-71
2022/02/27 08:18:52;;;;;;;10.02;5.63;;;1.80;99.90;;;;;;4900946;29;20230;-70
2022/02/27 08:21:18;;;;;;;13.80;6.57;;;1.90;99.90;;;;;;4906590;29;20212;-71
2022/02/27 08:23:45;;;;;;;9.13;4.95;;;1.90;99.90;;;;;;4916359;29;20203;-70
2022/02/27 08:26:13;;;;;;;5.30;3.72;;;2.00;99.90;;;;;;4912294;29;20301;-70
2022/02/27 08:28:40;;;;;;;11.85;6.18;;;2.10;99.90;;;;;;4902553;29;20239;-70
2022/02/27 08:31:07;;;;;;;6.28;5.00;;;2.10;99.90;;;;;;4917147;29;20214;-70
2022/02/27 08:33:33;;;;;;;7.55;4.80;;;2.20;99.90;;;;;;4938537;29;20533;-70
2022/02/27 08:36:00;;;;;;;7.03;5.65;;;2.30;99.90;;;;;;4919426;29;20277;-70
2022/02/27 08:38:27;;;;;;;10.65;5.45;;;2.30;99.90;;;;;;4924391;29;20234;-70
2022/02/27 08:40:54;;;;;;;13.90;7.45;;;2.40;99.90;;;;;;4924094;29;20214;-70
2022/02/27 08:43:22;;;;;;;7.50;6.32;;;2.40;99.90;;;;;;4919361;29;20217;-70
2022/02/27 08:45:49;;;;;;;9.50;5.78;;;2.50;99.90;;;;;;4916971;29;20715;-70
2022/02/27 08:48:16;;;;;;;5.78;5.20;;;2.60;99.90;;;;;;4902596;29;20309;-70
2022/02/27 08:50:42;;;;;;;8.27;5.13;;;2.60;99.90;;;;;;4917003;29;20294;-70
2022/02/27 08:53:09;;;;;;;5.85;5.35;;;2.70;99.90;;;;;;4903501;29;20206;-70
2022/02/27 08:55:37;;;;;;;9.05;5.85;;;2.80;99.90;;;;;;4908155;29;20263;-70
2022/02/27 08:58:04;;;;;;;7.45;5.00;;;2.80;99.90;;;;;;4906262;29;20227;-70
2022/02/27 09:00:32;;;;;;;12.93;9.20;;;2.90;99.90;;;;;;4900515;29;20818;-70
2022/02/27 09:02:59;;;;;;;12.65;9.20;;;2.90;99.90;;;;;;4917521;29;20954;-70
2022/02/27 09:05:26;;;;;;;6.88;5.03;;;3.00;99.90;;;;;;4906758;29;20219;-70
2022/02/27 09:07:52;;;;;;;9.30;5.55;;;3.10;99.90;;;;;;4901986;29;20231;-70
2022/02/27 09:10:19;;;;;;;21.60;15.95;;;3.20;99.90;;;;;;4899117;29;20239;-70
2022/02/27 09:12:47;;;;;;;8.20;6.70;;;3.20;99.90;;;;;;4916313;29;20238;-70
2022/02/27 09:15:14;;;;;;;4.53;4.13;;;3.30;99.90;;;;;;4905755;29;20207;-70
2022/02/27 09:17:43;;;;;;;5.22;4.75;;;3.40;99.90;;;;;;4907298;29;20228;-70
2022/02/27 09:20:10;;;;;;;5.05;4.60;;;3.50;99.90;;;;;;4909333;29;20211;-70
2022/02/27 09:22:38;;;;;;;5.70;3.90;;;3.50;99.90;;;;;;4904738;29;20218;-70
2022/02/27 09:25:06;;;;;;;4.57;4.22;;;3.60;99.90;;;;;;4908788;29;20211;-70
2022/02/27 09:27:32;;;;;;;6.00;4.88;;;3.70;99.90;;;;;;4897167;29;20245;-70
2022/02/27 09:29:59;;;;;;;4.22;4.00;;;3.80;99.90;;;;;;4898022;29;20218;-70
2022/02/27 09:32:26;;;;;;;6.47;3.85;;;3.90;99.90;;;;;;4907905;29;20553;-70
2022/02/27 09:34:54;;;;;;;5.18;3.45;;;4.00;99.90;;;;;;4903400;29;20214;-70
2022/02/27 09:37:21;;;;;;;4.53;4.10;;;4.10;99.90;;;;;;4916421;29;20231;-70
2022/02/27 09:39:47;;;;;;;5.22;3.92;;;4.20;99.90;;;;;;4914421;29;20553;-70
2022/02/27 09:42:14;;;;;;;4.20;3.85;;;4.20;99.90;;;;;;4903502;29;20209;-70
2022/02/27 09:44:44;;;;;;;4.18;3.88;;;4.30;99.90;;;;;;4915542;29;20206;-70
2022/02/27 09:47:13;;;;;;;4.88;3.53;;;4.40;99.90;;;;;;4924894;29;20256;-70
2022/02/27 09:49:45;;;;;;;6.28;3.30;;;4.50;99.90;;;;;;4901700;29;20207;-70
2022/02/27 09:52:14;;;;;;;5.63;3.35;;;4.50;99.90;;;;;;4905311;29;20238;-70
2022/02/27 09:54:41;;;;;;;3.97;2.75;;;4.60;99.90;;;;;;4914898;29;20217;-70
2022/02/27 09:57:13;;;;;;;6.53;3.67;;;4.70;99.90;;;;;;4909314;29;20237;-70
2022/02/27 09:59:39;;;;;;;4.35;3.22;;;4.70;99.90;;;;;;4898344;29;20247;-70
2022/02/27 10:02:07;;;;;;;3.72;3.35;;;4.80;99.90;;;;;;4908639;29;20417;-70
2022/02/27 10:04:35;;;;;;;5.50;3.90;;;4.80;99.90;;;;;;4896620;29;20226;-70
2022/02/27 10:07:07;;;;;;;4.05;3.75;;;4.90;99.90;;;;;;4896838;29;20219;-71
2022/02/27 10:09:35;;;;;;;4.35;3.75;;;5.00;99.90;;;;;;4926473;29;20214;-71
2022/02/27 10:12:24;;;;;;;4.93;3.70;;;5.10;99.90;;;;;;4917195;29;20334;-70
2022/02/27 10:15:01;;;;;;;10.10;4.53;;;5.20;99.90;;;;;;4913043;29;20210;-71
2022/02/27 10:17:31;;;;;;;8.88;3.47;;;5.20;99.90;;;;;;4911364;29;20233;-71
2022/02/27 10:19:58;;;;;;;3.60;3.40;;;5.30;99.90;;;;;;4914682;29;20309;-71
2022/02/27 10:22:29;;;;;;;7.88;3.67;;;5.30;99.90;;;;;;4903631;29;20681;-71
2022/02/27 10:24:57;;;;;;;3.05;2.95;;;5.50;99.90;;;;;;4907583;29;20597;-71
2022/02/27 10:27:24;;;;;;;6.35;4.00;;;5.60;99.90;;;;;;4902162;29;20834;-69
2022/02/27 10:29:51;;;;;;;3.20;3.00;;;5.40;99.90;;;;;;4895445;29;20216;-69
2022/02/27 10:32:28;;;;;;;4.85;2.75;;;5.80;99.90;;;;;;4896568;29;20226;-70
2022/02/27 10:34:55;;;;;;;4.53;3.75;;;5.80;99.90;;;;;;4896492;29;20350;-70
2022/02/27 10:37:22;;;;;;;2.90;2.70;;;5.90;99.90;;;;;;4896671;29;20573;-71
2022/02/27 10:39:51;;;;;;;3.42;3.10;;;5.80;99.90;;;;;;4897331;29;20211;-72
2022/02/27 10:42:21;;;;;;;1.98;1.98;;;6.00;99.90;;;;;;4896818;29;20631;-72
2022/02/27 10:44:53;;;;;;;3.15;2.35;;;6.20;99.90;;;;;;4896084;29;20245;-70
2022/02/27 10:47:21;;;;;;;2.72;2.35;;;6.10;99.90;;;;;;4896173;29;20238;-70
2022/02/27 10:49:53;;;;;;;2.63;2.53;;;6.20;99.90;;;;;;4896972;29;20215;-71
2022/02/27 10:52:23;;;;;;;2.10;2.00;;;6.30;99.90;;;;;;4901215;29;20211;-70
2022/02/27 10:54:51;;;;;;;2.80;2.42;;;6.40;99.90;;;;;;4896076;29;20222;-70
2022/02/27 10:57:37;;;;;;;4.10;2.63;;;6.30;99.90;;;;;;4896333;29;20227;-72
2022/02/27 11:00:23;;;;;;;3.03;2.45;;;6.40;99.90;;;;;;4895951;29;20214;-70
2022/02/27 11:02:52;;;;;;;2.67;2.58;;;6.50;99.90;;;;;;4896269;29;20736;-71
2022/02/27 11:05:21;;;;;;;2.22;2.13;;;6.70;99.90;;;;;;4896198;29;20211;-71
2022/02/27 11:07:49;;;;;;;2.13;1.90;;;6.60;99.90;;;;;;4898246;29;20311;-70
2022/02/27 11:10:17;;;;;;;3.78;2.40;;;6.70;99.90;;;;;;4911445;29;20550;-71
2022/02/27 11:12:46;;;;;;;3.85;3.45;;;6.70;99.90;;;;;;4915259;29;20206;-72
2022/02/27 11:15:15;;;;;;;3.20;2.90;;;6.80;99.90;;;;;;4907404;29;20227;-71
2022/02/27 11:17:43;;;;;;;2.65;2.45;;;6.90;99.90;;;;;;4915146;29;20218;-71
2022/02/27 11:20:11;;;;;;;2.63;2.45;;;6.90;99.90;;;;;;4917602;29;20300;-70
2022/02/27 11:22:38;;;;;;;2.45;2.35;;;6.90;99.90;;;;;;4903066;29;20214;-70
2022/02/27 11:25:08;;;;;;;1.92;1.88;;;7.00;99.90;;;;;;4913871;29;20210;-70
2022/02/27 11:27:36;;;;;;;3.03;2.55;;;7.10;99.90;;;;;;4912957;29;20775;-70
2022/02/27 11:30:06;;;;;;;4.05;3.00;;;7.10;99.90;;;;;;4896766;29;20577;-70
2022/02/27 11:32:33;;;;;;;3.03;2.35;;;7.20;99.90;;;;;;4899587;29;20215;-70
2022/02/27 11:35:00;;;;;;;2.75;2.55;;;7.20;99.90;;;;;;4898543;29;20208;-71
2022/02/27 11:37:54;;;;;;;2.03;1.92;;;7.30;99.90;;;;;;4900883;29;20222;-71
2022/02/27 11:40:30;;;;;;;2.35;2.20;;;7.30;99.90;;;;;;4886015;29;20210;-69
2022/02/27 11:42:58;;;;;;;2.42;2.22;;;7.30;99.90;;;;;;4902514;29;20207;-72
2022/02/27 11:45:56;;;;;;;2.25;2.13;;;7.40;99.90;;;;;;4901500;29;20210;-70
2022/02/27 11:48:57;;;;;;;2.85;2.60;;;7.50;99.90;;;;;;4913056;29;20805;-70
2022/02/27 11:51:54;;;;;;;2.53;2.30;;;7.60;99.90;;;;;;4912966;29;20217;-70
2022/02/27 11:54:22;;;;;;;2.30;2.20;;;7.60;99.90;;;;;;4919781;29;20293;-70
2022/02/27 11:57:09;;;;;;;6.82;2.80;;;7.70;99.90;;;;;;4933897;29;20235;-71
2022/02/27 12:00:01;;;;;;;3.20;2.80;;;7.60;99.90;;;;;;4933988;29;20222;-71
2022/02/27 12:02:36;;;;;;;3.00;2.70;;;7.70;99.90;;;;;;4933917;29;20213;-71
2022/02/27 12:05:05;;;;;;;4.50;3.10;;;7.70;99.90;;;;;;4913515;29;20217;-70
2022/02/27 12:08:07;;;;;;;3.67;3.30;;;7.80;99.90;;;;;;4895195;29;20235;-70
2022/02/27 12:10:35;;;;;;;1.90;1.90;;;7.80;99.90;;;;;;4895049;29;20218;-72
2022/02/27 12:13:03;;;;;;;2.47;2.28;;;7.90;99.90;;;;;;4895463;29;20271;-70
2022/02/27 12:15:32;;;;;;;4.28;3.15;;;7.90;99.90;;;;;;4898347;29;20218;-70
2022/02/27 12:18:02;;;;;;;2.95;2.72;;;8.00;99.90;;;;;;4897698;29;20238;-70
2022/02/27 12:20:43;;;;;;;2.38;2.25;;;8.00;99.90;;;;;;4895640;29;20207;-69
2022/02/27 12:23:13;;;;;;;3.80;2.55;;;8.00;99.90;;;;;;4894276;29;20219;-70
2022/02/27 12:25:41;;;;;;;3.40;2.40;;;8.00;99.90;;;;;;4895554;29;20279;-70
2022/02/27 12:28:08;;;;;;;7.97;5.40;;;8.00;99.90;;;;;;4895092;29;20235;-70
2022/02/27 12:30:35;;;;;;;1.50;1.50;;;8.10;99.90;;;;;;4895088;29;20265;-70
2022/02/27 12:33:07;;;;;;;2.38;2.10;;;8.30;99.90;;;;;;4895003;29;20208;-70
2022/02/27 12:35:34;;;;;;;2.85;2.20;;;8.30;99.90;;;;;;4897790;29;20298;-70
2022/02/27 12:38:03;;;;;;;5.47;2.50;;;8.40;99.90;;;;;;4898212;29;20227;-70
2022/02/27 12:40:32;;;;;;;3.03;2.83;;;8.40;99.90;;;;;;4907870;29;20218;-70
2022/02/27 12:43:04;;;;;;;2.85;2.65;;;8.40;99.90;;;;;;4917251;29;20214;-70
2022/02/27 12:45:31;;;;;;;3.25;3.05;;;8.40;99.90;;;;;;4908934;29;20203;-70
2022/02/27 12:48:09;;;;;;;3.42;2.70;;;8.30;99.90;;;;;;4898087;29;20530;-70
2022/02/27 12:50:46;;;;;;;8.65;3.00;;;8.30;99.90;;;;;;4898276;29;20298;-70
2022/02/27 12:53:13;;;;;;;2.63;2.00;;;8.20;99.90;;;;;;4897757;29;20211;-71
2022/02/27 12:55:41;;;;;;;4.93;2.65;;;8.20;99.90;;;;;;4904606;29;20620;-71
2022/02/27 12:58:09;;;;;;;2.55;2.40;;;8.30;99.90;;;;;;4928104;29;20230;-71
2022/02/27 13:00:37;;;;;;;3.15;2.67;;;8.30;99.90;;;;;;4918410;29;20320;-71
2022/02/27 13:03:08;;;;;;;3.60;2.95;;;8.40;99.90;;;;;;4917216;29;20242;-71
2022/02/27 13:05:35;;;;;;;4.90;2.78;;;8.60;99.90;;;;;;4917668;29;20211;-71
2022/02/27 13:08:03;;;;;;;2.75;2.55;;;8.70;99.90;;;;;;4916678;29;20273;-70
2022/02/27 13:10:30;;;;;;;2.45;1.90;;;8.80;99.90;;;;;;4914532;29;20302;-70
2022/02/27 13:12:59;;;;;;;2.03;1.92;;;8.80;99.90;;;;;;4921803;29;20292;-70
2022/02/27 13:15:26;;;;;;;7.68;2.80;;;8.90;99.90;;;;;;4936048;29;20214;-70
2022/02/27 13:17:53;;;;;;;5.90;3.42;;;8.90;99.90;;;;;;4936366;29;20237;-69
2022/02/27 13:20:22;;;;;;;4.70;3.92;;;8.90;99.90;;;;;;4935905;29;20560;-69
2022/02/27 13:22:51;;;;;;;3.25;2.15;;;8.90;99.90;;;;;;4936137;29;20265;-70
2022/02/27 13:25:18;;;;;;;2.92;1.58;;;8.90;99.90;;;;;;4935165;29;20225;-70
2022/02/27 13:27:48;;;;;;;4.68;3.00;;;9.00;99.90;;;;;;4936286;29;20580;-70
2022/02/27 13:30:17;;;;;;;2.38;1.90;;;8.90;99.90;;;;;;4935647;29;20216;-69
2022/02/27 13:32:46;;;;;;;2.70;2.60;;;8.80;99.90;;;;;;4936337;29;20218;-69
2022/02/27 13:35:16;;;;;;;5.47;4.95;;;8.80;99.90;;;;;;4936322;29;20205;-69
2022/02/27 13:37:50;;;;;;;4.60;1.63;;;8.80;99.90;;;;;;4939023;29;20222;-69
2022/02/27 13:40:19;;;;;;;2.25;2.15;;;8.80;99.90;;;;;;4948553;29;20198;-69
2022/02/27 13:42:46;;;;;;;3.45;1.63;;;8.80;99.90;;;;;;4930723;29;20230;-69
2022/02/27 13:45:28;;;;;;;3.10;2.90;;;8.80;99.90;;;;;;4917052;29;20215;-69
2022/02/27 13:47:55;;;;;;;4.72;2.03;;;8.80;99.90;;;;;;4917268;29;20237;-70
2022/02/27 13:50:24;;;;;;;3.17;2.95;;;8.70;99.90;;;;;;4915565;29;20214;-69
2022/02/27 13:52:58;;;;;;;5.72;4.93;;;8.60;99.90;;;;;;4916477;29;20207;-70
2022/02/27 13:55:26;;;;;;;3.72;3.42;;;8.50;99.90;;;;;;4904451;29;20211;-69
2022/02/27 13:58:06;;;;;;;5.43;4.95;;;8.50;99.90;;;;;;4897580;29;20235;-70
2022/02/27 14:00:34;;;;;;;3.25;3.05;;;8.40;99.90;;;;;;4914580;29;20686;-69
2022/02/27 14:03:07;;;;;;;2.40;2.20;;;8.50;99.90;;;;;;4930465;29;20205;-69
2022/02/27 14:05:36;;;;;;;1.52;1.42;;;8.60;99.90;;;;;;4935311;29;20220;-70
2022/02/27 14:08:04;;;;;;;2.53;1.98;;;8.60;99.90;;;;;;4929455;29;20797;-70
2022/02/27 14:10:34;;;;;;;3.08;2.53;;;8.60;99.90;;;;;;4913296;29;20256;-69
2022/02/27 14:13:05;;;;;;;2.67;2.45;;;8.60;99.90;;;;;;4921384;29;20222;-69
2022/02/27 14:15:35;;;;;;;2.35;2.15;;;8.60;99.90;;;;;;4918810;29;20207;-69
2022/02/27 14:18:26;;;;;;;2.25;2.15;;;8.60;99.90;;;;;;4917380;29;20227;-69
2022/02/27 14:20:56;;;;;;;3.97;2.33;;;8.60;99.90;;;;;;4916321;29;20312;-68
2022/02/27 14:23:28;;;;;;;3.92;3.58;;;8.50;99.90;;;;;;4915390;29;20332;-69
2022/02/27 14:25:55;;;;;;;3.38;3.03;;;8.40;99.90;;;;;;4916136;29;20206;-69
2022/02/27 14:28:22;;;;;;;3.05;2.95;;;8.20;99.90;;;;;;4915848;29;20241;-69
2022/02/27 14:30:50;;;;;;;3.63;3.38;;;8.20;99.90;;;;;;4915339;29;20685;-69
2022/02/27 14:33:18;;;;;;;4.40;3.80;;;8.30;99.90;;;;;;4915271;29;20471;-69
2022/02/27 14:35:46;;;;;;;5.10;3.20;;;8.20;99.90;;;;;;4915182;29;20211;-71
2022/02/27 14:38:13;;;;;;;3.30;3.10;;;8.20;99.90;;;;;;4896323;29;20866;-71
2022/02/27 14:40:45;;;;;;;4.95;4.00;;;8.20;99.90;;;;;;4899849;29;20242;-70
2022/02/27 14:43:12;;;;;;;4.60;3.40;;;8.20;99.90;;;;;;4921868;29;20548;-71
2022/02/27 14:45:38;;;;;;;4.35;3.95;;;8.20;99.90;;;;;;4910799;29;20222;-70
2022/02/27 14:48:07;;;;;;;3.78;3.15;;;8.30;99.90;;;;;;4898394;29;20247;-71
2022/02/27 14:50:35;;;;;;;4.47;4.10;;;8.30;99.90;;;;;;4899874;29;20207;-71
2022/02/27 14:53:02;;;;;;;4.40;3.53;;;8.30;99.90;;;;;;4901512;29;20208;-71
2022/02/27 14:55:29;;;;;;;3.85;3.25;;;8.30;99.90;;;;;;4906779;29;20546;-71
2022/02/27 14:57:55;;;;;;;5.07;3.40;;;8.30;99.90;;;;;;4911543;29;20226;-71
2022/02/27 15:00:22;;;;;;;4.30;3.97;;;8.30;99.90;;;;;;4902150;29;20211;-69
2022/02/27 15:02:49;;;;;;;3.50;3.30;;;8.20;99.90;;;;;;4917777;29;20305;-70
2022/02/27 15:05:17;;;;;;;3.75;3.45;;;8.20;99.90;;;;;;4906065;29;20565;-70
2022/02/27 15:07:44;;;;;;;4.00;3.63;;;8.20;99.90;;;;;;4905139;29;20230;-70
2022/02/27 15:10:12;;;;;;;4.53;4.03;;;8.20;99.90;;;;;;4898721;29;20239;-70
2022/02/27 15:12:41;;;;;;;4.60;3.83;;;8.10;99.90;;;;;;4905287;29;20206;-70
2022/02/27 15:15:09;;;;;;;6.13;3.92;;;8.10;99.90;;;;;;4912152;29;20206;-71
2022/02/27 15:17:36;;;;;;;4.13;3.83;;;8.10;99.90;;;;;;4901218;29;20226;-72
2022/02/27 15:20:03;;;;;;;3.17;3.00;;;8.10;99.90;;;;;;4907429;29;20210;-70
2022/02/27 15:22:31;;;;;;;3.60;3.30;;;8.00;99.90;;;;;;4914938;29;20214;-70
2022/02/27 15:24:58;;;;;;;8.80;4.30;;;8.00;99.90;;;;;;4903777;29;20207;-70
2022/02/27 15:27:25;;;;;;;4.13;3.63;;;8.00;99.90;;;;;;4899346;29;20238;-70
2022/02/27 15:29:52;;;;;;;4.53;4.25;;;8.00;99.90;;;;;;4903744;29;20230;-70
2022/02/27 15:32:19;;;;;;;4.05;3.58;;;7.90;99.90;;;;;;4914102;29;20206;-70
2022/02/27 15:34:45;;;;;;;6.40;2.95;;;8.00;99.90;;;;;;4904795;29;20207;-70
2022/02/27 15:37:13;;;;;;;4.78;2.40;;;7.90;99.90;;;;;;4913652;29;20231;-70
2022/02/27 15:39:42;;;;;;;5.85;4.57;;;7.80;99.90;;;;;;4896627;29;20291;-70
2022/02/27 15:42:09;;;;;;;3.78;3.55;;;7.80;99.90;;;;;;4898971;29;20728;-70
2022/02/27 15:44:36;;;;;;;6.15;3.75;;;7.80;99.90;;;;;;4915177;29;20217;-70
2022/02/27 15:47:06;;;;;;;2.65;2.47;;;7.80;99.90;;;;;;4919756;29;20673;-70
2022/02/27 15:49:33;;;;;;;5.32;4.38;;;7.70;99.90;;;;;;4913277;29;20227;-70
2022/02/27 15:52:01;;;;;;;5.93;4.43;;;7.70;99.90;;;;;;4904280;29;20207;-69
2022/02/27 15:54:28;;;;;;;4.90;3.85;;;7.70;99.90;;;;;;4904044;29;20756;-70
2022/02/27 15:56:57;;;;;;;4.53;4.25;;;7.70;99.90;;;;;;4901835;29;20223;-70
2022/02/27 15:59:23;;;;;;;3.63;3.42;;;7.70;99.90;;;;;;4908804;29;20689;-70
2022/02/27 16:01:50;;;;;;;4.25;3.90;;;7.60;99.90;;;;;;4917456;29;20214;-70
2022/02/27 16:04:18;;;;;;;4.43;4.10;;;7.60;99.90;;;;;;4930023;29;20210;-70
2022/02/27 16:06:45;;;;;;;7.47;5.00;;;7.50;99.90;;;;;;4930704;29;20259;-71
2022/02/27 16:09:12;;;;;;;7.90;6.80;;;7.50;99.90;;;;;;4932374;29;20319;-71
2022/02/27 16:11:38;;;;;;;4.45;4.10;;;7.50;99.90;;;;;;4935018;29;20207;-71
2022/02/27 16:14:06;;;;;;;13.63;8.45;;;7.50;99.90;;;;;;4905625;29;20302;-71
2022/02/27 16:16:33;;;;;;;9.48;5.88;;;7.40;99.90;;;;;;4917674;29;20210;-71
2022/02/27 16:19:01;;;;;;;6.97;4.80;;;7.30;99.90;;;;;;4905183;29;20223;-71
2022/02/27 16:21:27;;;;;;;4.30;3.95;;;7.30;99.90;;;;;;4900837;29;20302;-71
2022/02/27 16:23:54;;;;;;;6.85;4.93;;;7.20;99.90;;;;;;4898646;29;20212;-71
2022/02/27 16:26:21;;;;;;;4.72;3.78;;;7.20;99.90;;;;;;4916375;29;20213;-70
2022/02/27 16:28:48;;;;;;;4.45;4.15;;;7.20;99.90;;;;;;4926936;29;20269;-70
2022/02/27 16:31:17;;;;;;;4.82;4.53;;;7.20;99.90;;;;;;4898034;29;20222;-71
2022/02/27 16:33:43;;;;;;;4.30;4.05;;;7.20;99.90;;;;;;4898888;29;20262;-71
2022/02/27 16:36:10;;;;;;;5.55;4.00;;;7.10;99.90;;;;;;4904994;29;20656;-71
2022/02/27 16:38:37;;;;;;;3.08;2.92;;;7.00;99.90;;;;;;4910332;29;20245;-71
2022/02/27 16:41:05;;;;;;;2.88;2.78;;;7.00;99.90;;;;;;4912045;29;20718;-71
2022/02/27 16:43:34;;;;;;;4.00;3.00;;;6.90;99.90;;;;;;4909178;29;20302;-70
2022/02/27 16:46:01;;;;;;;3.90;3.35;;;6.90;99.90;;;;;;4903257;29;20286;-70
2022/02/27 16:48:30;;;;;;;2.92;2.83;;;6.80;99.90;;;;;;4905962;29;20226;-70
2022/02/27 16:50:58;;;;;;;6.43;3.50;;;6.80;99.90;;;;;;4904190;29;20211;-70
2022/02/27 16:53:25;;;;;;;2.92;2.80;;;6.80;99.90;;;;;;4898786;29;20234;-70
2022/02/27 16:55:53;;;;;;;4.15;3.13;;;6.70;99.90;;;;;;4920227;29;20345;-71
2022/02/27 16:58:19;;;;;;;3.70;3.40;;;6.60;99.90;;;;;;4919134;29;20237;-70
2022/02/27 17:00:46;;;;;;;3.00;2.85;;;6.60;99.90;;;;;;4925808;29;20237;-71
2022/02/27 17:03:13;;;;;;;3.13;2.90;;;6.60;99.90;;;;;;4936706;29;20206;-70
2022/02/27 17:05:41;;;;;;;4.05;3.60;;;6.50;99.90;;;;;;4936774;29;20213;-70
2022/02/27 17:08:08;;;;;;;4.40;3.50;;;6.40;99.90;;;;;;4935201;29;20641;-70
2022/02/27 17:10:34;;;;;;;3.50;3.20;;;6.30;99.90;;;;;;4925004;29;20238;-70
2022/02/27 17:13:01;;;;;;;3.33;3.13;;;6.30;99.90;;;;;;4926228;29;20624;-70
2022/02/27 17:15:28;;;;;;;3.60;3.00;;;6.20;99.90;;;;;;4936124;29;20206;-71
2022/02/27 17:17:55;;;;;;;3.72;3.17;;;6.20;99.90;;;;;;4936168;29;20240;-71
2022/02/27 17:20:22;;;;;;;4.22;3.22;;;6.10;99.90;;;;;;4934852;29;20209;-71
2022/02/27 17:22:50;;;;;;;9.02;4.07;;;6.00;99.90;;;;;;4936007;29;20222;-70
2022/02/27 17:25:17;;;;;;;5.50;3.80;;;6.00;99.90;;;;;;4935277;29;20221;-70
2022/02/27 17:27:44;;;;;;;4.05;3.65;;;5.90;99.90;;;;;;4904454;29;20712;-70
2022/02/27 17:30:12;;;;;;;14.88;7.93;;;5.90;99.90;;;;;;4897156;29;20235;-70
2022/02/27 17:32:38;;;;;;;8.35;6.30;;;5.90;99.90;;;;;;4908918;29;20209;-70
2022/02/27 17:35:07;;;;;;;9.57;6.03;;;5.80;99.90;;;;;;4935671;29;20281;-70
2022/02/27 17:37:34;;;;;;;6.35;5.78;;;5.70;99.90;;;;;;4935362;29;20238;-70
2022/02/27 17:40:06;;;;;;;4.43;4.03;;;5.70;99.90;;;;;;4934206;29;20301;-71
2022/02/27 17:42:33;;;;;;;3.83;3.28;;;5.60;99.90;;;;;;4928893;29;20286;-70
2022/02/27 17:45:00;;;;;;;3.53;3.28;;;5.60;99.90;;;;;;4904994;29;20407;-69
2022/02/27 17:47:27;;;;;;;6.57;3.35;;;5.60;99.90;;;;;;4897324;29;20235;-70
2022/02/27 17:49:54;;;;;;;6.82;5.65;;;5.50;99.90;;;;;;4896474;29;20231;-70
2022/02/27 17:52:21;;;;;;;5.10;4.22;;;5.50;99.90;;;;;;4916784;29;20599;-70
2022/02/27 17:54:48;;;;;;;5.65;4.88;;;5.30;99.90;;;;;;4927687;29;20214;-72
2022/02/27 17:57:16;;;;;;;5.53;4.47;;;5.30;99.90;;;;;;4935256;29;20630;-70
2022/02/27 17:59:42;;;;;;;5.43;4.72;;;5.20;99.90;;;;;;4920833;29;20207;-70
2022/02/27 18:02:09;;;;;;;9.07;5.70;;;5.20;99.90;;;;;;4915499;29;20270;-70